sensor_id;sensor_type;location;lat;lon;timestamp;pressure;altitude;pressure_sealevel;temperature;humidity
65557;BME280;52200;53.490;14.376;2022-08-04T00:00:06;101409.16;;;21.34;71.83
65557;BME280;52200;53.490;14.376;2022-08-04T00:02:50;101397.63;;;21.25;71.95
65557;BME280;52200;53.490;14.376;2022-08-04T00:10:43;101400.38;;;21.07;72.33
65557;BME280;52200;53.490;14.376;2022-08-04T00:13:13;101399.66;;;21.05;72.51
65557;BME280;52200;53.490;14.376;2022-08-04T00:15:40;101399.94;;;21.01;72.65
65557;BME280;52200;53.490;14.376;2022-08-04T00:18:08;101400.31;;;20.94;73.03
65557;BME280;52200;53.490;14.376;2022-08-04T00:20:37;101405.66;;;20.91;73.54
65557;BME280;52200;53.490;14.376;2022-08-04T00:23:06;101402.50;;;20.86;73.89
65557;BME280;52200;53.490;14.376;2022-08-04T00:25:32;101397.63;;;20.82;74.14
65557;BME280;52200;53.490;14.376;2022-08-04T00:27:59;101400.28;;;20.80;74.72
65557;BME280;52200;53.490;14.376;2022-08-04T00:30:26;101396.28;;;20.60;75.43
65557;BME280;52200;53.490;14.376;2022-08-04T00:32:53;101392.88;;;20.59;75.58
65557;BME280;52200;53.490;14.376;2022-08-04T00:35:21;101395.63;;;20.56;75.74
65557;BME280;52200;53.490;14.376;2022-08-04T00:37:48;101401.13;;;20.50;75.88
65557;BME280;52200;53.490;14.376;2022-08-04T00:40:34;101408.31;;;20.45;76.21
65557;BME280;52200;53.490;14.376;2022-08-04T00:43:20;101395.03;;;20.37;76.36
65557;BME280;52200;53.490;14.376;2022-08-04T00:48:46;101397.63;;;20.21;77.17
65557;BME280;52200;53.490;14.376;2022-08-04T01:00:07;101393.47;;;20.04;76.99
65557;BME280;52200;53.490;14.376;2022-08-04T01:05:51;101392.13;;;19.48;78.04
65557;BME280;52200;53.490;14.376;2022-08-04T01:16:31;101395.38;;;18.85;80.86
65557;BME280;52200;53.490;14.376;2022-08-04T01:19:00;101393.75;;;19.17;79.90
65557;BME280;52200;53.490;14.376;2022-08-04T01:29:11;101391.41;;;19.13;80.19
65557;BME280;52200;53.490;14.376;2022-08-04T01:32:03;101388.28;;;19.24;79.45
65557;BME280;52200;53.490;14.376;2022-08-04T01:40:13;101393.91;;;19.30;78.92
65557;BME280;52200;53.490;14.376;2022-08-04T01:42:40;101387.03;;;19.31;78.93
65557;BME280;52200;53.490;14.376;2022-08-04T01:45:08;101387.53;;;19.38;78.42
65557;BME280;52200;53.490;14.376;2022-08-04T01:47:37;101387.63;;;19.36;78.37
65557;BME280;52200;53.490;14.376;2022-08-04T01:50:07;101388.28;;;19.40;78.42
65557;BME280;52200;53.490;14.376;2022-08-04T01:52:35;101390.09;;;19.38;78.30
65557;BME280;52200;53.490;14.376;2022-08-04T01:55:05;101391.53;;;19.27;78.60
65557;BME280;52200;53.490;14.376;2022-08-04T01:57:32;101387.78;;;19.17;79.04
65557;BME280;52200;53.490;14.376;2022-08-04T02:00:02;101390.34;;;19.17;79.19
65557;BME280;52200;53.490;14.376;2022-08-04T02:02:28;101395.34;;;19.20;78.72
65557;BME280;52200;53.490;14.376;2022-08-04T02:04:53;101386.28;;;19.29;78.13
65557;BME280;52200;53.490;14.376;2022-08-04T02:22:48;101386.78;;;19.20;77.28
65557;BME280;52200;53.490;14.376;2022-08-04T02:25:23;101389.28;;;19.21;76.69
65557;BME280;52200;53.490;14.376;2022-08-04T02:27:57;101396.00;;;19.24;77.08
65557;BME280;52200;53.490;14.376;2022-08-04T02:30:40;101385.88;;;19.21;77.55
65557;BME280;52200;53.490;14.376;2022-08-04T02:33:11;101386.09;;;19.16;77.37
65557;BME280;52200;53.490;14.376;2022-08-04T02:35:40;101378.47;;;19.14;77.88
65557;BME280;52200;53.490;14.376;2022-08-04T02:38:17;101379.44;;;19.12;78.11
65557;BME280;52200;53.490;14.376;2022-08-04T02:40:46;101381.41;;;19.07;78.35
65557;BME280;52200;53.490;14.376;2022-08-04T02:43:11;101378.25;;;19.01;78.80
65557;BME280;52200;53.490;14.376;2022-08-04T02:45:41;101380.53;;;18.90;79.70
65557;BME280;52200;53.490;14.376;2022-08-04T02:48:09;101383.72;;;18.95;79.41
65557;BME280;52200;53.490;14.376;2022-08-04T02:50:36;101380.69;;;18.87;79.48
65557;BME280;52200;53.490;14.376;2022-08-04T02:53:03;101380.09;;;18.82;79.37
65557;BME280;52200;53.490;14.376;2022-08-04T02:55:30;101377.81;;;18.76;79.24
65557;BME280;52200;53.490;14.376;2022-08-04T02:57:57;101374.06;;;18.65;79.54
65557;BME280;52200;53.490;14.376;2022-08-04T03:00:26;101371.78;;;18.59;79.63
65557;BME280;52200;53.490;14.376;2022-08-04T03:05:34;101376.63;;;18.65;79.76
65557;BME280;52200;53.490;14.376;2022-08-04T03:30:03;101374.50;;;18.56;79.42
65557;BME280;52200;53.490;14.376;2022-08-04T03:55:14;101376.00;;;18.95;77.45
65557;BME280;52200;53.490;14.376;2022-08-04T04:00:39;101385.44;;;19.12;76.87
65557;BME280;52200;53.490;14.376;2022-08-04T04:28:26;101386.28;;;19.77;75.45
65557;BME280;52200;53.490;14.376;2022-08-04T04:31:02;101388.13;;;19.91;74.86
65557;BME280;52200;53.490;14.376;2022-08-04T04:34:03;101386.78;;;20.00;74.70
65557;BME280;52200;53.490;14.376;2022-08-04T04:37:34;101386.28;;;20.09;74.70
65557;BME280;52200;53.490;14.376;2022-08-04T04:45:25;101398.22;;;19.95;75.79
65557;BME280;52200;53.490;14.376;2022-08-04T04:53:41;101390.09;;;20.62;73.80
65557;BME280;52200;53.490;14.376;2022-08-04T04:56:26;101402.75;;;20.37;75.83
65557;BME280;52200;53.490;14.376;2022-08-04T04:58:54;101402.66;;;20.54;74.82
65557;BME280;52200;53.490;14.376;2022-08-04T05:15:07;101400.97;;;21.54;73.00
65557;BME280;52200;53.490;14.376;2022-08-04T05:17:38;101396.53;;;21.71;72.71
65557;BME280;52200;53.490;14.376;2022-08-04T05:20:32;101402.09;;;21.50;73.65
65557;BME280;52200;53.490;14.376;2022-08-04T05:23:02;101396.59;;;21.84;72.34
65557;BME280;52200;53.490;14.376;2022-08-04T05:28:12;101397.47;;;22.10;72.54
65557;BME280;52200;53.490;14.376;2022-08-04T05:30:42;101386.63;;;22.58;71.59
65557;BME280;52200;53.490;14.376;2022-08-04T05:33:26;101401.75;;;23.03;70.43
65557;BME280;52200;53.490;14.376;2022-08-04T05:35:56;101397.22;;;23.68;68.48
65557;BME280;52200;53.490;14.376;2022-08-04T05:38:26;101392.38;;;24.12;67.08
65557;BME280;52200;53.490;14.376;2022-08-04T05:40:54;101395.47;;;24.28;66.35
65557;BME280;52200;53.490;14.376;2022-08-04T05:43:22;101401.09;;;24.58;65.61
65557;BME280;52200;53.490;14.376;2022-08-04T05:45:50;101398.66;;;24.68;64.15
65557;BME280;52200;53.490;14.376;2022-08-04T05:48:16;101393.47;;;24.79;63.79
65557;BME280;52200;53.490;14.376;2022-08-04T05:50:44;101399.47;;;24.68;63.62
65557;BME280;52200;53.490;14.376;2022-08-04T05:53:11;101393.25;;;24.46;64.42
65557;BME280;52200;53.490;14.376;2022-08-04T05:55:38;101397.97;;;24.30;65.15
65557;BME280;52200;53.490;14.376;2022-08-04T05:58:04;101390.56;;;24.37;65.47
65557;BME280;52200;53.490;14.376;2022-08-04T06:00:30;101397.97;;;24.41;64.53
65557;BME280;52200;53.490;14.376;2022-08-04T06:02:59;101395.66;;;24.61;64.97
65557;BME280;52200;53.490;14.376;2022-08-04T06:05:25;101399.00;;;24.86;63.97
65557;BME280;52200;53.490;14.376;2022-08-04T06:07:52;101391.09;;;24.87;62.32
65557;BME280;52200;53.490;14.376;2022-08-04T06:10:18;101397.38;;;26.06;60.82
65557;BME280;52200;53.490;14.376;2022-08-04T06:12:52;101397.78;;;27.26;57.71
65557;BME280;52200;53.490;14.376;2022-08-04T06:15:20;101389.19;;;28.23;55.15
65557;BME280;52200;53.490;14.376;2022-08-04T06:17:53;101393.84;;;29.05;53.88
65557;BME280;52200;53.490;14.376;2022-08-04T06:20:21;101389.00;;;30.87;49.78
65557;BME280;52200;53.490;14.376;2022-08-04T06:22:57;101386.81;;;31.09;48.00
65557;BME280;52200;53.490;14.376;2022-08-04T06:25:28;101391.31;;;29.59;50.88
65557;BME280;52200;53.490;14.376;2022-08-04T06:27:56;101389.88;;;28.73;53.94
65557;BME280;52200;53.490;14.376;2022-08-04T06:30:24;101398.66;;;26.95;56.18
65557;BME280;52200;53.490;14.376;2022-08-04T06:32:52;101390.31;;;26.18;58.51
65557;BME280;52200;53.490;14.376;2022-08-04T06:35:22;101393.47;;;25.68;60.38
65557;BME280;52200;53.490;14.376;2022-08-04T06:37:50;101399.56;;;25.79;61.57
65557;BME280;52200;53.490;14.376;2022-08-04T06:40:18;101393.19;;;25.83;59.64
65557;BME280;52200;53.490;14.376;2022-08-04T06:42:44;101393.13;;;25.94;60.71
65557;BME280;52200;53.490;14.376;2022-08-04T06:45:13;101388.84;;;25.72;61.02
65557;BME280;52200;53.490;14.376;2022-08-04T06:47:40;101397.41;;;25.95;61.58
65557;BME280;52200;53.490;14.376;2022-08-04T06:50:10;101392.72;;;25.99;60.36
65557;BME280;52200;53.490;14.376;2022-08-04T06:52:37;101399.56;;;26.11;59.41
65557;BME280;52200;53.490;14.376;2022-08-04T06:55:04;101383.94;;;26.11;59.17
65557;BME280;52200;53.490;14.376;2022-08-04T06:57:32;101384.97;;;26.20;59.67
65557;BME280;52200;53.490;14.376;2022-08-04T07:00:01;101391.38;;;26.16;59.51
65557;BME280;52200;53.490;14.376;2022-08-04T07:02:30;101393.34;;;26.45;59.33
65557;BME280;52200;53.490;14.376;2022-08-04T07:04:57;101389.81;;;26.77;59.35
65557;BME280;52200;53.490;14.376;2022-08-04T07:07:23;101385.56;;;26.76;60.38
65557;BME280;52200;53.490;14.376;2022-08-04T07:09:49;101383.84;;;26.96;58.99
65557;BME280;52200;53.490;14.376;2022-08-04T07:12:16;101385.25;;;27.10;58.68
65557;BME280;52200;53.490;14.376;2022-08-04T07:14:47;101383.72;;;27.48;57.05
65557;BME280;52200;53.490;14.376;2022-08-04T07:17:14;101384.69;;;27.66;56.81
65557;BME280;52200;53.490;14.376;2022-08-04T07:19:41;101387.84;;;27.70;56.22
65557;BME280;52200;53.490;14.376;2022-08-04T07:22:08;101381.50;;;27.92;56.03
65557;BME280;52200;53.490;14.376;2022-08-04T07:24:36;101382.63;;;27.80;56.58
65557;BME280;52200;53.490;14.376;2022-08-04T07:27:02;101384.81;;;27.75;58.33
65557;BME280;52200;53.490;14.376;2022-08-04T07:29:28;101388.97;;;28.07;55.98
65557;BME280;52200;53.490;14.376;2022-08-04T07:31:55;101379.13;;;28.28;56.70
65557;BME280;52200;53.490;14.376;2022-08-04T07:34:21;101372.22;;;28.37;56.28
65557;BME280;52200;53.490;14.376;2022-08-04T07:36:48;101371.69;;;28.34;55.38
65557;BME280;52200;53.490;14.376;2022-08-04T07:39:14;101380.94;;;28.66;53.90
65557;BME280;52200;53.490;14.376;2022-08-04T07:41:41;101372.84;;;28.69;53.18
65557;BME280;52200;53.490;14.376;2022-08-04T07:44:08;101376.19;;;28.89;54.83
65557;BME280;52200;53.490;14.376;2022-08-04T07:46:35;101369.72;;;29.11;55.10
65557;BME280;52200;53.490;14.376;2022-08-04T07:49:01;101370.00;;;29.36;52.61
65557;BME280;52200;53.490;14.376;2022-08-04T07:51:28;101375.81;;;29.48;53.34
65557;BME280;52200;53.490;14.376;2022-08-04T07:53:55;101369.69;;;29.39;53.63
65557;BME280;52200;53.490;14.376;2022-08-04T07:56:21;101368.13;;;29.64;52.47
65557;BME280;52200;53.490;14.376;2022-08-04T07:58:46;101371.84;;;29.98;53.96
65557;BME280;52200;53.490;14.376;2022-08-04T08:01:13;101369.66;;;29.75;51.63
65557;BME280;52200;53.490;14.376;2022-08-04T08:03:39;101365.31;;;30.02;51.81
65557;BME280;52200;53.490;14.376;2022-08-04T08:06:05;101365.81;;;30.05;52.63
65557;BME280;52200;53.490;14.376;2022-08-04T08:08:31;101368.91;;;29.83;52.86
65557;BME280;52200;53.490;14.376;2022-08-04T08:10:56;101366.28;;;30.01;53.00
65557;BME280;52200;53.490;14.376;2022-08-04T08:13:23;101364.94;;;30.23;52.12
65557;BME280;52200;53.490;14.376;2022-08-04T08:15:49;101358.72;;;30.24;51.37
65557;BME280;52200;53.490;14.376;2022-08-04T08:18:16;101360.25;;;30.35;54.26
65557;BME280;52200;53.490;14.376;2022-08-04T08:20:45;101344.91;;;30.48;51.54
65557;BME280;52200;53.490;14.376;2022-08-04T08:23:11;101349.63;;;30.71;51.49
65557;BME280;52200;53.490;14.376;2022-08-04T08:25:37;101350.94;;;30.75;49.95
65557;BME280;52200;53.490;14.376;2022-08-04T08:28:05;101348.38;;;31.00;50.47
65557;BME280;52200;53.490;14.376;2022-08-04T08:30:32;101341.78;;;30.79;50.55
65557;BME280;52200;53.490;14.376;2022-08-04T08:33:04;101348.50;;;30.90;50.01
65557;BME280;52200;53.490;14.376;2022-08-04T08:47:26;101337.63;;;31.36;49.89
65557;BME280;52200;53.490;14.376;2022-08-04T08:52:11;101338.13;;;31.73;48.99
65557;BME280;52200;53.490;14.376;2022-08-04T09:12:27;101333.72;;;32.69;48.39
65557;BME280;52200;53.490;14.376;2022-08-04T09:17:36;101336.16;;;32.47;47.25
65557;BME280;52200;53.490;14.376;2022-08-04T09:20:12;101329.16;;;32.31;47.03
65557;BME280;52200;53.490;14.376;2022-08-04T09:23:03;101335.25;;;32.24;47.25
65557;BME280;52200;53.490;14.376;2022-08-04T09:25:39;101339.63;;;32.40;47.74
65557;BME280;52200;53.490;14.376;2022-08-04T09:28:30;101335.63;;;32.52;47.13
65557;BME280;52200;53.490;14.376;2022-08-04T09:31:11;101332.16;;;32.60;48.12
65557;BME280;52200;53.490;14.376;2022-08-04T09:36:40;101325.56;;;32.56;46.18
65557;BME280;52200;53.490;14.376;2022-08-04T09:44:59;101331.09;;;32.77;46.28
65557;BME280;52200;53.490;14.376;2022-08-04T09:47:33;101328.28;;;32.71;45.85
65557;BME280;52200;53.490;14.376;2022-08-04T09:50:37;101323.78;;;32.56;46.07
65557;BME280;52200;53.490;14.376;2022-08-04T10:01:16;101318.75;;;32.78;44.11
65557;BME280;52200;53.490;14.376;2022-08-04T10:03:48;101317.75;;;32.79;43.83
65557;BME280;52200;53.490;14.376;2022-08-04T10:06:44;101311.91;;;33.38;44.31
65557;BME280;52200;53.490;14.376;2022-08-04T10:14:47;101309.56;;;33.43;42.83
65557;BME280;52200;53.490;14.376;2022-08-04T10:17:38;101314.63;;;33.30;42.26
65557;BME280;52200;53.490;14.376;2022-08-04T10:20:10;101308.28;;;33.16;43.23
65557;BME280;52200;53.490;14.376;2022-08-04T10:23:04;101309.22;;;33.47;41.91
65557;BME280;52200;53.490;14.376;2022-08-04T10:28:16;101303.06;;;33.69;41.87
65557;BME280;52200;53.490;14.376;2022-08-04T10:30:49;101295.94;;;33.55;41.13
65557;BME280;52200;53.490;14.376;2022-08-04T10:33:36;101288.34;;;33.60;40.30
65557;BME280;52200;53.490;14.376;2022-08-04T10:36:08;101291.66;;;33.39;40.62
65557;BME280;52200;53.490;14.376;2022-08-04T10:39:00;101281.50;;;33.51;40.94
65557;BME280;52200;53.490;14.376;2022-08-04T10:44:39;101264.19;;;34.01;39.10
65557;BME280;52200;53.490;14.376;2022-08-04T10:47:16;101279.91;;;34.25;40.17
65557;BME280;52200;53.490;14.376;2022-08-04T10:49:47;101277.34;;;34.16;39.25
65557;BME280;52200;53.490;14.376;2022-08-04T10:55:18;101273.53;;;34.04;39.18
65557;BME280;52200;53.490;14.376;2022-08-04T10:57:58;101260.34;;;34.19;39.28
65557;BME280;52200;53.490;14.376;2022-08-04T11:00:27;101259.56;;;34.03;39.03
65557;BME280;52200;53.490;14.376;2022-08-04T11:02:58;101270.97;;;34.11;40.97
65557;BME280;52200;53.490;14.376;2022-08-04T11:05:30;101254.56;;;34.30;39.46
65557;BME280;52200;53.490;14.376;2022-08-04T11:08:08;101263.31;;;34.31;39.60
65557;BME280;52200;53.490;14.376;2022-08-04T11:10:43;101262.44;;;34.23;41.27
65557;BME280;52200;53.490;14.376;2022-08-04T11:13:14;101251.22;;;34.36;39.69
65557;BME280;52200;53.490;14.376;2022-08-04T11:15:45;101237.03;;;34.37;39.65
65557;BME280;52200;53.490;14.376;2022-08-04T11:18:48;101256.50;;;34.36;40.10
65557;BME280;52200;53.490;14.376;2022-08-04T11:21:20;101245.19;;;34.43;41.78
65557;BME280;52200;53.490;14.376;2022-08-04T11:24:02;101247.28;;;34.47;39.54
65557;BME280;52200;53.490;14.376;2022-08-04T11:26:37;101234.66;;;34.64;38.27
65557;BME280;52200;53.490;14.376;2022-08-04T11:29:24;101241.94;;;35.06;38.92
65557;BME280;52200;53.490;14.376;2022-08-04T11:31:57;101230.28;;;35.22;38.40
65557;BME280;52200;53.490;14.376;2022-08-04T11:34:25;101232.03;;;34.64;38.88
65557;BME280;52200;53.490;14.376;2022-08-04T11:39:42;101232.38;;;35.05;38.87
65557;BME280;52200;53.490;14.376;2022-08-04T11:44:50;101216.53;;;35.05;38.79
65557;BME280;52200;53.490;14.376;2022-08-04T11:47:41;101227.88;;;34.55;39.41
65557;BME280;52200;53.490;14.376;2022-08-04T11:50:21;101219.56;;;34.80;38.89
65557;BME280;52200;53.490;14.376;2022-08-04T11:52:52;101212.03;;;34.98;39.52
65557;BME280;52200;53.490;14.376;2022-08-04T11:55:21;101218.50;;;34.52;37.89
65557;BME280;52200;53.490;14.376;2022-08-04T11:57:47;101214.06;;;34.53;37.75
65557;BME280;52200;53.490;14.376;2022-08-04T12:00:15;101211.91;;;34.63;37.54
65557;BME280;52200;53.490;14.376;2022-08-04T12:05:18;101219.94;;;34.55;38.48
65557;BME280;52200;53.490;14.376;2022-08-04T12:10:40;101210.00;;;35.00;37.82
65557;BME280;52200;53.490;14.376;2022-08-04T12:13:23;101206.47;;;34.86;38.01
65557;BME280;52200;53.490;14.376;2022-08-04T12:16:02;101212.53;;;35.09;37.18
65557;BME280;52200;53.490;14.376;2022-08-04T12:18:37;101204.41;;;35.39;37.22
65557;BME280;52200;53.490;14.376;2022-08-04T12:21:11;101207.84;;;35.81;38.01
65557;BME280;52200;53.490;14.376;2022-08-04T12:23:41;101203.56;;;35.10;37.81
65557;BME280;52200;53.490;14.376;2022-08-04T12:26:19;101197.56;;;35.23;37.18
65557;BME280;52200;53.490;14.376;2022-08-04T12:28:49;101194.25;;;35.14;37.78
65557;BME280;52200;53.490;14.376;2022-08-04T12:31:41;101194.50;;;35.54;36.42
65557;BME280;52200;53.490;14.376;2022-08-04T12:34:16;101198.16;;;35.53;36.30
65557;BME280;52200;53.490;14.376;2022-08-04T12:37:03;101197.06;;;34.62;37.85
65557;BME280;52200;53.490;14.376;2022-08-04T12:39:31;101204.47;;;34.74;39.11
65557;BME280;52200;53.490;14.376;2022-08-04T12:42:02;101190.63;;;35.15;38.35
65557;BME280;52200;53.490;14.376;2022-08-04T12:44:37;101196.03;;;35.07;37.40
65557;BME280;52200;53.490;14.376;2022-08-04T12:47:07;101188.22;;;35.20;37.26
65557;BME280;52200;53.490;14.376;2022-08-04T12:49:34;101187.00;;;34.72;36.90
65557;BME280;52200;53.490;14.376;2022-08-04T12:52:04;101187.97;;;35.15;37.31
65557;BME280;52200;53.490;14.376;2022-08-04T12:54:32;101182.94;;;35.55;37.57
65557;BME280;52200;53.490;14.376;2022-08-04T12:57:00;101178.28;;;35.57;36.52
65557;BME280;52200;53.490;14.376;2022-08-04T12:59:26;101178.44;;;35.97;35.74
65557;BME280;52200;53.490;14.376;2022-08-04T13:01:53;101170.19;;;35.79;35.00
65557;BME280;52200;53.490;14.376;2022-08-04T13:04:24;101177.47;;;35.63;35.82
65557;BME280;52200;53.490;14.376;2022-08-04T13:06:56;101167.72;;;35.29;36.05
65557;BME280;52200;53.490;14.376;2022-08-04T13:09:28;101155.53;;;35.28;37.46
65557;BME280;52200;53.490;14.376;2022-08-04T13:12:02;101159.75;;;34.65;37.13
65557;BME280;52200;53.490;14.376;2022-08-04T13:14:36;101157.31;;;34.92;36.66
65557;BME280;52200;53.490;14.376;2022-08-04T13:17:04;101150.44;;;35.26;37.67
65557;BME280;52200;53.490;14.376;2022-08-04T13:19:31;101162.03;;;35.67;37.07
65557;BME280;52200;53.490;14.376;2022-08-04T13:21:57;101154.84;;;35.96;35.81
65557;BME280;52200;53.490;14.376;2022-08-04T13:24:25;101152.44;;;36.08;35.83
65557;BME280;52200;53.490;14.376;2022-08-04T13:27:06;101150.00;;;36.13;35.62
65557;BME280;52200;53.490;14.376;2022-08-04T13:29:42;101144.47;;;35.94;35.22
65557;BME280;52200;53.490;14.376;2022-08-04T13:32:09;101142.84;;;35.51;36.66
65557;BME280;52200;53.490;14.376;2022-08-04T13:34:35;101144.38;;;35.32;35.94
65557;BME280;52200;53.490;14.376;2022-08-04T13:37:05;101137.16;;;34.84;37.08
65557;BME280;52200;53.490;14.376;2022-08-04T13:39:33;101148.66;;;34.77;36.74
65557;BME280;52200;53.490;14.376;2022-08-04T13:42:02;101149.00;;;34.45;38.08
65557;BME280;52200;53.490;14.376;2022-08-04T13:44:31;101142.34;;;34.28;39.29
65557;BME280;52200;53.490;14.376;2022-08-04T13:47:02;101138.13;;;34.55;37.80
65557;BME280;52200;53.490;14.376;2022-08-04T13:49:29;101135.47;;;34.77;36.76
65557;BME280;52200;53.490;14.376;2022-08-04T13:51:59;101125.34;;;35.09;36.80
65557;BME280;52200;53.490;14.376;2022-08-04T13:54:33;101128.47;;;35.67;36.78
65557;BME280;52200;53.490;14.376;2022-08-04T13:57:00;101127.41;;;35.55;35.21
65557;BME280;52200;53.490;14.376;2022-08-04T13:59:32;101117.63;;;35.49;36.03
65557;BME280;52200;53.490;14.376;2022-08-04T14:02:07;101115.50;;;35.79;35.91
65557;BME280;52200;53.490;14.376;2022-08-04T14:04:39;101116.06;;;35.61;35.44
65557;BME280;52200;53.490;14.376;2022-08-04T14:07:14;101111.53;;;34.85;37.14
65557;BME280;52200;53.490;14.376;2022-08-04T14:09:40;101106.97;;;34.65;37.25
65557;BME280;52200;53.490;14.376;2022-08-04T14:12:11;101115.94;;;34.28;37.13
65557;BME280;52200;53.490;14.376;2022-08-04T14:14:49;101105.56;;;34.41;37.66
65557;BME280;52200;53.490;14.376;2022-08-04T14:17:17;101103.59;;;34.28;38.73
65557;BME280;52200;53.490;14.376;2022-08-04T14:19:55;101097.72;;;34.33;38.96
65557;BME280;52200;53.490;14.376;2022-08-04T14:24:57;101101.38;;;34.10;38.76
65557;BME280;52200;53.490;14.376;2022-08-04T14:27:23;101095.91;;;33.90;38.67
65557;BME280;52200;53.490;14.376;2022-08-04T14:29:49;101096.81;;;33.97;39.27
65557;BME280;52200;53.490;14.376;2022-08-04T14:32:15;101089.88;;;34.18;39.24
65557;BME280;52200;53.490;14.376;2022-08-04T14:34:42;101084.84;;;34.23;37.41
65557;BME280;52200;53.490;14.376;2022-08-04T14:37:10;101071.88;;;34.43;38.21
65557;BME280;52200;53.490;14.376;2022-08-04T14:39:51;101076.97;;;35.01;36.80
65557;BME280;52200;53.490;14.376;2022-08-04T14:42:18;101080.31;;;35.79;37.35
65557;BME280;52200;53.490;14.376;2022-08-04T14:45:03;101072.75;;;35.56;37.08
65557;BME280;52200;53.490;14.376;2022-08-04T14:47:43;101076.41;;;35.61;35.86
65557;BME280;52200;53.490;14.376;2022-08-04T14:50:09;101071.44;;;36.20;36.42
65557;BME280;52200;53.490;14.376;2022-08-04T14:52:36;101068.00;;;36.40;35.69
65557;BME280;52200;53.490;14.376;2022-08-04T14:55:25;101073.25;;;36.06;35.76
65557;BME280;52200;53.490;14.376;2022-08-04T14:57:51;101063.69;;;36.19;35.56
65557;BME280;52200;53.490;14.376;2022-08-04T15:00:31;101061.25;;;36.04;35.52
65557;BME280;52200;53.490;14.376;2022-08-04T15:03:04;101059.66;;;36.43;36.07
65557;BME280;52200;53.490;14.376;2022-08-04T15:05:31;101058.00;;;36.55;35.53
65557;BME280;52200;53.490;14.376;2022-08-04T15:07:58;101054.09;;;36.71;35.41
65557;BME280;52200;53.490;14.376;2022-08-04T15:10:24;101060.84;;;36.47;36.12
65557;BME280;52200;53.490;14.376;2022-08-04T15:12:50;101060.84;;;36.47;36.48
65557;BME280;52200;53.490;14.376;2022-08-04T15:15:16;101057.81;;;35.96;35.31
65557;BME280;52200;53.490;14.376;2022-08-04T15:17:42;101055.03;;;35.63;35.62
65557;BME280;52200;53.490;14.376;2022-08-04T15:20:09;101048.84;;;35.29;36.67
65557;BME280;52200;53.490;14.376;2022-08-04T15:22:34;101050.25;;;35.25;35.61
65557;BME280;52200;53.490;14.376;2022-08-04T15:25:00;101038.03;;;34.82;36.08
65557;BME280;52200;53.490;14.376;2022-08-04T15:27:28;101050.38;;;35.10;36.89
65557;BME280;52200;53.490;14.376;2022-08-04T15:30:06;101053.47;;;34.85;37.44
65557;BME280;52200;53.490;14.376;2022-08-04T15:32:38;101039.81;;;34.75;38.24
65557;BME280;52200;53.490;14.376;2022-08-04T15:35:10;101040.03;;;34.45;37.39
65557;BME280;52200;53.490;14.376;2022-08-04T15:40:18;101038.34;;;34.65;36.98
65557;BME280;52200;53.490;14.376;2022-08-04T15:43:00;101027.69;;;34.52;37.09
65557;BME280;52200;53.490;14.376;2022-08-04T15:45:31;101028.91;;;34.28;36.93
65557;BME280;52200;53.490;14.376;2022-08-04T15:53:22;101037.25;;;34.31;37.26
65557;BME280;52200;53.490;14.376;2022-08-04T15:55:48;101024.59;;;34.20;38.07
65557;BME280;52200;53.490;14.376;2022-08-04T15:58:15;101032.38;;;34.28;38.69
65557;BME280;52200;53.490;14.376;2022-08-04T16:11:38;101017.94;;;34.52;37.45
65557;BME280;52200;53.490;14.376;2022-08-04T16:14:07;101012.53;;;34.61;37.88
65557;BME280;52200;53.490;14.376;2022-08-04T16:22:06;101003.28;;;34.43;38.40
65557;BME280;52200;53.490;14.376;2022-08-04T16:24:40;101004.78;;;34.02;39.74
65557;BME280;52200;53.490;14.376;2022-08-04T16:27:10;101004.28;;;33.77;39.36
65557;BME280;52200;53.490;14.376;2022-08-04T16:29:37;101006.13;;;33.77;39.09
65557;BME280;52200;53.490;14.376;2022-08-04T16:37:01;100997.94;;;33.86;39.20
65557;BME280;52200;53.490;14.376;2022-08-04T16:39:27;101001.56;;;33.49;40.30
65557;BME280;52200;53.490;14.376;2022-08-04T16:41:53;101004.25;;;33.19;40.51
65557;BME280;52200;53.490;14.376;2022-08-04T16:44:33;100998.69;;;33.28;39.95
65557;BME280;52200;53.490;14.376;2022-08-04T16:47:02;100994.91;;;33.31;39.70
65557;BME280;52200;53.490;14.376;2022-08-04T16:49:29;101000.28;;;33.23;39.73
65557;BME280;52200;53.490;14.376;2022-08-04T16:52:01;100997.78;;;33.36;40.01
65557;BME280;52200;53.490;14.376;2022-08-04T16:54:31;100989.38;;;33.11;39.37
65557;BME280;52200;53.490;14.376;2022-08-04T16:56:58;100989.38;;;33.11;39.78
65557;BME280;52200;53.490;14.376;2022-08-04T16:59:24;100990.56;;;33.08;38.98
65557;BME280;52200;53.490;14.376;2022-08-04T17:01:51;100998.00;;;33.20;39.99
65557;BME280;52200;53.490;14.376;2022-08-04T17:04:32;100990.56;;;33.08;39.93
65557;BME280;52200;53.490;14.376;2022-08-04T17:07:00;100995.13;;;32.85;40.71
65557;BME280;52200;53.490;14.376;2022-08-04T17:09:26;100993.97;;;32.87;41.43
65557;BME280;52200;53.490;14.376;2022-08-04T17:11:53;100991.28;;;32.72;42.19
65557;BME280;52200;53.490;14.376;2022-08-04T17:14:23;100989.72;;;32.33;42.25
65557;BME280;52200;53.490;14.376;2022-08-04T17:16:49;100992.44;;;32.40;41.37
65557;BME280;52200;53.490;14.376;2022-08-04T17:19:15;100999.78;;;32.44;42.07
65557;BME280;52200;53.490;14.376;2022-08-04T17:21:42;100994.75;;;32.20;42.45
65557;BME280;52200;53.490;14.376;2022-08-04T17:24:08;100999.38;;;31.94;44.56
65557;BME280;52200;53.490;14.376;2022-08-04T17:26:36;100996.13;;;32.07;44.06
65557;BME280;52200;53.490;14.376;2022-08-04T17:29:02;100994.78;;;32.11;43.62